createdAt,value
2022-08-18T00:01:17.516Z,20.34
2022-08-18T00:04:35.701Z,20.32
2022-08-18T00:07:46.959Z,20.33
2022-08-18T00:10:55.260Z,20.40
2022-08-18T00:14:03.508Z,20.46
2022-08-18T00:17:11.920Z,20.27
2022-08-18T00:20:24.066Z,20.22
2022-08-18T00:23:33.634Z,20.17
2022-08-18T00:26:41.855Z,20.37
2022-08-18T00:29:58.146Z,20.08
2022-08-18T00:33:06.362Z,20.19
2022-08-18T00:36:14.648Z,20.06
2022-08-18T00:39:24.198Z,20.14
2022-08-18T00:42:41.420Z,20.06
2022-08-18T00:45:49.797Z,20.02
2022-08-18T00:48:58.614Z,19.95
2022-08-18T00:52:08.078Z,19.87
2022-08-18T00:55:19.480Z,19.81
2022-08-18T00:58:35.845Z,19.87
2022-08-18T01:01:47.343Z,19.86
2022-08-18T01:05:02.601Z,19.72
2022-08-18T01:08:16.716Z,19.74
2022-08-18T01:11:39.418Z,19.55
2022-08-18T01:14:48.768Z,19.39
2022-08-18T01:18:15.668Z,19.36
2022-08-18T01:21:48.573Z,19.15
2022-08-18T01:25:20.316Z,19.09
2022-08-18T01:28:29.563Z,18.94
2022-08-18T01:31:42.019Z,18.76
2022-08-18T01:35:03.454Z,18.80
2022-08-18T01:38:13.299Z,18.73
2022-08-18T01:41:30.303Z,18.82
2022-08-18T01:44:41.563Z,18.61
2022-08-18T01:47:50.622Z,18.46
2022-08-18T01:50:58.855Z,18.36
2022-08-18T01:54:07.101Z,18.35
2022-08-18T01:57:22.883Z,18.40
2022-08-18T02:00:32.384Z,18.37
2022-08-18T02:03:45.729Z,18.27
2022-08-18T02:06:53.895Z,18.24
2022-08-18T02:10:20.510Z,18.22
2022-08-18T02:13:40.250Z,18.23
2022-08-18T02:16:48.846Z,18.30
2022-08-18T02:19:57.209Z,18.17
2022-08-18T02:23:05.451Z,18.04
2022-08-18T02:26:18.246Z,18.02
2022-08-18T02:29:28.233Z,17.97
2022-08-18T02:32:36.715Z,17.90
2022-08-18T02:35:46.257Z,17.92
2022-08-18T02:38:59.957Z,17.87
2022-08-18T02:42:09.474Z,17.79
2022-08-18T02:45:19.555Z,17.83
2022-08-18T02:48:31.125Z,17.82
2022-08-18T02:51:39.801Z,17.87
2022-08-18T02:54:48.379Z,17.77
2022-08-18T02:57:56.665Z,17.76
2022-08-18T03:01:06.265Z,17.67
2022-08-18T03:04:26.652Z,17.60
2022-08-18T03:07:37.442Z,17.58
2022-08-18T03:10:53.796Z,17.68
2022-08-18T03:14:01.999Z,17.45
2022-08-18T03:17:11.612Z,17.56
2022-08-18T03:20:19.834Z,17.45
2022-08-18T03:23:41.545Z,17.36
2022-08-18T03:26:50.979Z,17.49
2022-08-18T03:29:59.344Z,17.56
2022-08-18T03:33:08.986Z,17.46
2022-08-18T03:36:21.687Z,17.46
2022-08-18T03:39:30.454Z,17.27
2022-08-18T03:42:39.012Z,17.21
2022-08-18T03:45:47.360Z,17.18
2022-08-18T03:49:00.359Z,17.23
2022-08-18T03:52:11.701Z,17.25
2022-08-18T03:55:20.185Z,17.35
2022-08-18T03:58:29.190Z,17.27
2022-08-18T04:01:41.397Z,17.22
2022-08-18T04:04:51.456Z,17.08
2022-08-18T04:08:00.153Z,16.99
2022-08-18T04:11:08.271Z,17.15
2022-08-18T04:14:20.338Z,17.17
2022-08-18T04:17:29.037Z,17.26
2022-08-18T04:20:57.641Z,17.16
2022-08-18T04:24:08.931Z,17.00
2022-08-18T04:27:17.959Z,16.98
2022-08-18T04:30:26.215Z,16.91
2022-08-18T04:33:34.493Z,16.79
2022-08-18T04:36:45.360Z,16.75
2022-08-18T04:39:53.642Z,16.86
2022-08-18T04:43:02.830Z,16.94
2022-08-18T04:46:12.389Z,17.22
2022-08-18T04:49:24.065Z,17.10
2022-08-18T04:52:51.502Z,17.02
2022-08-18T04:56:00.065Z,16.99
2022-08-18T04:59:11.720Z,16.99
2022-08-18T05:02:22.928Z,17.11
2022-08-18T05:05:32.523Z,17.27
2022-08-18T05:08:42.306Z,17.36
2022-08-18T05:11:51.906Z,17.59
2022-08-18T05:15:00.296Z,17.79
2022-08-18T05:18:08.495Z,17.98
2022-08-18T05:21:25.249Z,17.87
2022-08-18T05:24:37.568Z,17.91
2022-08-18T05:27:46.146Z,18.01
2022-08-18T05:30:54.625Z,18.24
2022-08-18T05:34:05.525Z,18.55
2022-08-18T05:37:32.368Z,18.96
2022-08-18T05:40:47.721Z,19.35
2022-08-18T05:43:58.458Z,19.45
2022-08-18T05:47:12.768Z,19.65
2022-08-18T05:50:22.880Z,19.89
2022-08-18T05:53:45.786Z,20.24
2022-08-18T05:57:01.264Z,20.16
2022-08-18T06:00:11.835Z,20.27
2022-08-18T06:03:28.080Z,20.33
2022-08-18T06:06:39.093Z,20.38
2022-08-18T06:09:53.734Z,20.62
2022-08-18T06:13:09.333Z,20.51
2022-08-18T06:16:29.538Z,20.63
2022-08-18T06:19:53.303Z,20.54
2022-08-18T06:23:21.449Z,20.43
2022-08-18T06:26:41.707Z,20.43
2022-08-18T06:30:07.038Z,20.37
2022-08-18T06:33:45.920Z,20.42
2022-08-18T06:37:10.710Z,20.38
2022-08-18T06:40:18.951Z,20.39
2022-08-18T06:43:32.258Z,20.30
2022-08-18T06:47:04.220Z,20.28
2022-08-18T06:50:26.132Z,20.59
2022-08-18T06:53:58.683Z,20.93
2022-08-18T06:57:09.761Z,21.02
2022-08-18T07:00:26.782Z,21.09
2022-08-18T07:03:51.412Z,21.12
2022-08-18T07:06:59.964Z,21.24
2022-08-18T07:10:32.601Z,21.39
2022-08-18T07:13:44.412Z,21.26
2022-08-18T07:17:07.640Z,21.53
2022-08-18T07:20:24.453Z,22.01
2022-08-18T07:23:39.793Z,22.13
2022-08-18T07:27:08.379Z,22.49
2022-08-18T07:30:36.203Z,22.25
2022-08-18T07:33:56.649Z,22.21
2022-08-18T07:37:12.326Z,22.02
2022-08-18T07:40:31.953Z,22.61
2022-08-18T07:44:01.210Z,23.42
2022-08-18T07:47:19.637Z,23.66
2022-08-18T07:50:57.417Z,23.07
2022-08-18T07:54:37.723Z,22.97
2022-08-18T07:57:54.970Z,23.97
2022-08-18T08:01:14.403Z,24.23
2022-08-18T08:04:38.018Z,24.00
2022-08-18T08:07:55.523Z,24.19
2022-08-18T08:11:27.674Z,26.25
2022-08-18T08:14:43.599Z,26.89
2022-08-18T08:18:09.552Z,25.16
2022-08-18T08:21:23.635Z,25.12
2022-08-18T08:24:55.829Z,24.55
2022-08-18T08:28:17.015Z,24.07
2022-08-18T08:31:39.332Z,24.30
2022-08-18T08:34:57.166Z,23.61
2022-08-18T08:38:40.284Z,23.73
2022-08-18T08:41:51.815Z,23.69
2022-08-18T08:45:07.895Z,23.63
2022-08-18T08:48:27.085Z,24.73
2022-08-18T08:51:46.468Z,25.85
2022-08-18T08:55:00.404Z,27.19
2022-08-18T08:58:23.175Z,26.86
2022-08-18T09:01:43.007Z,27.14
2022-08-18T09:05:08.304Z,27.45
2022-08-18T09:09:00.423Z,27.18
2022-08-18T09:12:40.070Z,27.35
2022-08-18T09:16:14.365Z,25.17
2022-08-18T09:19:54.111Z,24.42
2022-08-18T09:23:09.783Z,24.14
2022-08-18T09:26:41.356Z,24.69
2022-08-18T09:29:54.106Z,25.72
2022-08-18T09:33:20.788Z,25.54
2022-08-18T09:36:48.964Z,25.21
2022-08-18T09:40:44.722Z,25.66
2022-08-18T09:48:03.604Z,25.05
2022-08-18T09:51:35.339Z,24.75
2022-08-18T09:54:54.599Z,25.20
2022-08-18T10:01:52.505Z,26.45
2022-08-18T10:05:29.138Z,25.94
2022-08-18T10:09:27.013Z,25.70
2022-08-18T10:12:57.493Z,25.25
2022-08-18T10:16:21.255Z,25.70
2022-08-18T10:19:45.475Z,26.09
2022-08-18T10:22:57.925Z,25.95
2022-08-18T10:26:11.439Z,26.47
2022-08-18T10:29:54.417Z,26.81
2022-08-18T10:33:17.538Z,26.95
2022-08-18T10:36:49.178Z,25.32
2022-08-18T10:40:03.071Z,25.45
2022-08-18T10:43:45.237Z,26.23
2022-08-18T10:46:53.274Z,25.50
2022-08-18T10:50:09.872Z,25.95
2022-08-18T10:53:38.855Z,26.29
2022-08-18T10:56:55.665Z,26.63
2022-08-18T11:00:13.788Z,27.10
2022-08-18T11:03:52.072Z,26.80
2022-08-18T11:07:14.600Z,26.94
2022-08-18T11:14:40.369Z,25.94
2022-08-18T11:18:10.111Z,27.18
2022-08-18T11:21:45.900Z,27.93
2022-08-18T11:25:03.623Z,26.25
2022-08-18T11:28:30.126Z,26.36
2022-08-18T11:31:40.339Z,27.25
2022-08-18T11:35:01.249Z,27.65
2022-08-18T11:38:20.712Z,27.98
2022-08-18T11:45:23.478Z,27.16
2022-08-18T11:56:30.876Z,26.80
2022-08-18T11:59:54.760Z,27.50
2022-08-18T12:03:24.272Z,27.68
2022-08-18T12:06:40.408Z,28.04
2022-08-18T12:10:26.260Z,27.77
2022-08-18T12:13:47.586Z,28.20
2022-08-18T12:17:01.397Z,27.78
2022-08-18T12:20:13.914Z,28.10
2022-08-18T12:23:22.847Z,27.99
2022-08-18T12:26:38.744Z,27.82
2022-08-18T12:29:53.821Z,28.18
2022-08-18T12:33:05.880Z,28.19
2022-08-18T12:36:21.138Z,28.29
2022-08-18T12:39:36.667Z,27.83
2022-08-18T12:42:46.373Z,27.42
2022-08-18T12:45:58.518Z,27.44
2022-08-18T12:49:18.293Z,27.49
2022-08-18T12:52:29.580Z,27.98
2022-08-18T12:55:45.475Z,28.02
2022-08-18T12:58:55.693Z,28.29
2022-08-18T13:02:05.177Z,28.40
2022-08-18T13:05:15.392Z,28.34
2022-08-18T13:08:30.650Z,28.32
2022-08-18T13:11:42.804Z,27.80
2022-08-18T13:14:51.720Z,27.90
2022-08-18T13:18:01.864Z,27.66
2022-08-18T13:21:13.509Z,27.17
2022-08-18T13:24:23.546Z,27.07
2022-08-18T13:27:33.855Z,27.29
2022-08-18T13:30:54.990Z,27.08
2022-08-18T13:34:05.433Z,26.62
2022-08-18T13:37:21.107Z,26.91
2022-08-18T13:40:32.718Z,26.83
2022-08-18T13:43:47.843Z,26.69
2022-08-18T13:46:57.130Z,26.80
2022-08-18T13:50:11.554Z,27.26
2022-08-18T13:53:22.265Z,27.25
2022-08-18T13:56:32.916Z,27.30
2022-08-18T13:59:46.722Z,27.78
2022-08-18T14:02:59.045Z,27.75
2022-08-18T14:06:08.664Z,27.43
2022-08-18T14:09:35.718Z,27.46
2022-08-18T14:12:48.002Z,27.51
2022-08-18T14:16:01.393Z,26.69
2022-08-18T14:19:26.222Z,26.84
2022-08-18T14:22:54.970Z,26.98
2022-08-18T14:26:21.670Z,27.25
2022-08-18T14:29:45.556Z,27.40
2022-08-18T14:32:58.226Z,27.48
2022-08-18T14:36:09.811Z,27.48
2022-08-18T14:39:19.001Z,27.54
2022-08-18T14:42:41.338Z,27.71
2022-08-18T14:46:00.804Z,28.05
2022-08-18T14:49:12.577Z,28.15
2022-08-18T14:52:23.936Z,27.71
2022-08-18T14:55:34.059Z,28.00
2022-08-18T14:58:43.021Z,27.75
2022-08-18T15:01:54.390Z,27.77
2022-08-18T15:05:19.543Z,27.45
2022-08-18T15:08:34.604Z,27.38
2022-08-18T15:11:45.806Z,27.48
2022-08-18T15:15:02.039Z,27.09
2022-08-18T15:18:15.986Z,26.50
2022-08-18T15:21:49.701Z,26.60
2022-08-18T15:25:16.066Z,26.17
2022-08-18T15:28:28.065Z,26.10
2022-08-18T15:31:56.603Z,25.98
2022-08-18T15:35:11.751Z,26.13
2022-08-18T15:38:23.735Z,26.23
2022-08-18T15:41:43.984Z,26.33
2022-08-18T15:44:54.202Z,26.35
2022-08-18T15:48:03.794Z,26.42
2022-08-18T15:51:14.551Z,26.34
2022-08-18T15:54:26.095Z,26.33
2022-08-18T15:57:38.815Z,26.03
2022-08-18T16:00:49.301Z,25.71
2022-08-18T16:04:01.489Z,25.66
2022-08-18T16:07:11.705Z,25.54
2022-08-18T16:10:23.966Z,25.41
2022-08-18T16:13:32.746Z,25.46
2022-08-18T16:16:41.866Z,25.34
2022-08-18T16:19:51.753Z,25.27
2022-08-18T16:23:03.481Z,25.27
2022-08-18T16:29:28.319Z,25.29
2022-08-18T16:32:39.513Z,25.41
2022-08-18T16:35:52.048Z,25.45
2022-08-18T16:39:03.639Z,25.31
2022-08-18T16:42:12.436Z,25.29
2022-08-18T16:45:21.469Z,25.30
2022-08-18T16:48:30.231Z,25.22
2022-08-18T16:51:39.172Z,24.84
2022-08-18T16:54:57.690Z,24.72
2022-08-18T16:58:24.032Z,24.62
2022-08-18T17:01:50.266Z,24.51
2022-08-18T17:05:02.463Z,24.42
2022-08-18T17:08:10.916Z,24.38
2022-08-18T17:11:21.402Z,24.37
2022-08-18T17:14:33.024Z,24.36
2022-08-18T17:17:41.543Z,24.29
2022-08-18T17:20:50.532Z,24.25
2022-08-18T17:24:01.175Z,24.18
2022-08-18T17:27:27.295Z,24.03
2022-08-18T17:30:47.882Z,24.00
2022-08-18T17:34:06.352Z,23.90
2022-08-18T17:37:18.627Z,23.73
2022-08-18T17:40:34.910Z,23.30
2022-08-18T17:47:03.845Z,23.22
2022-08-18T17:50:58.234Z,22.47
2022-08-18T17:54:22.291Z,22.55
2022-08-18T17:57:37.387Z,22.51
2022-08-18T18:00:47.329Z,22.18
2022-08-18T18:03:55.700Z,22.09
2022-08-18T18:07:06.436Z,21.91
2022-08-18T18:10:27.632Z,21.78
2022-08-18T18:13:36.692Z,21.75
2022-08-18T18:17:01.599Z,21.44
2022-08-18T18:20:24.276Z,21.45
2022-08-18T18:23:41.176Z,21.35
2022-08-18T18:26:50.918Z,21.33
2022-08-18T18:30:03.256Z,21.23
2022-08-18T18:33:18.371Z,21.28
2022-08-18T18:36:36.935Z,21.22
2022-08-18T18:39:58.209Z,21.19
2022-08-18T18:43:28.882Z,21.18
2022-08-18T18:46:47.049Z,20.98
2022-08-18T18:50:05.896Z,20.78
2022-08-18T18:53:28.655Z,20.58
2022-08-18T18:56:46.308Z,20.38
2022-08-18T19:00:11.676Z,20.27
2022-08-18T19:03:28.435Z,20.28
2022-08-18T19:06:52.721Z,20.12
2022-08-18T19:10:10.457Z,20.09
2022-08-18T19:13:26.834Z,20.20
2022-08-18T19:16:53.035Z,20.26
2022-08-18T19:20:09.748Z,20.37
2022-08-18T19:23:44.610Z,20.43
2022-08-18T19:27:00.992Z,20.40
2022-08-18T19:30:18.507Z,20.22
2022-08-18T19:33:39.447Z,20.04
2022-08-18T19:36:58.068Z,19.97
2022-08-18T19:40:20.166Z,19.96
2022-08-18T19:43:42.730Z,20.16
2022-08-18T19:46:59.003Z,19.81
2022-08-18T19:50:17.218Z,20.01
2022-08-18T19:53:55.756Z,19.87
2022-08-18T19:57:26.700Z,19.99
2022-08-18T20:00:56.631Z,19.96
2022-08-18T20:04:26.057Z,19.86
2022-08-18T20:08:26.564Z,19.90
2022-08-18T20:12:13.377Z,19.68
2022-08-18T20:15:28.793Z,19.46
2022-08-18T20:18:43.838Z,19.27
2022-08-18T20:22:04.478Z,19.15
2022-08-18T20:25:44.540Z,19.07
2022-08-18T20:28:54.717Z,19.06
2022-08-18T20:32:07.288Z,18.74
2022-08-18T20:35:24.618Z,18.58
2022-08-18T20:38:40.837Z,18.53
2022-08-18T20:41:50.560Z,18.55
2022-08-18T20:45:12.651Z,18.57
2022-08-18T20:48:39.699Z,18.49
2022-08-18T20:52:07.019Z,18.28
2022-08-18T20:55:36.769Z,18.12
2022-08-18T20:59:08.835Z,18.12
2022-08-18T21:02:41.845Z,18.18
2022-08-18T21:06:02.644Z,18.07
2022-08-18T21:09:23.357Z,18.23
2022-08-18T21:12:36.995Z,18.10
2022-08-18T21:15:52.715Z,18.14
2022-08-18T21:19:14.483Z,18.10
2022-08-18T21:22:25.492Z,18.16
2022-08-18T21:25:34.546Z,18.26
2022-08-18T21:28:49.301Z,18.35
2022-08-18T21:32:12.042Z,18.33
2022-08-18T21:35:29.926Z,18.21
2022-08-18T21:38:38.562Z,18.09
2022-08-18T21:41:51.332Z,18.06
2022-08-18T21:45:03.897Z,18.05
2022-08-18T21:48:16.148Z,18.03
2022-08-18T21:51:31.893Z,18.22
2022-08-18T21:54:41.620Z,18.36
2022-08-18T21:58:02.806Z,18.40
2022-08-18T22:01:22.800Z,18.18
2022-08-18T22:04:35.906Z,18.37
2022-08-18T22:07:49.731Z,18.29
2022-08-18T22:12:01.155Z,18.31
2022-08-18T22:15:11.073Z,18.20
2022-08-18T22:18:40.700Z,18.16
2022-08-18T22:21:58.856Z,18.17
2022-08-18T22:25:13.113Z,18.14
2022-08-18T22:28:27.409Z,18.10
2022-08-18T22:31:41.090Z,18.13
2022-08-18T22:34:51.381Z,18.03
2022-08-18T22:38:00.781Z,18.16
2022-08-18T22:41:11.946Z,18.01
2022-08-18T22:44:21.024Z,18.15
2022-08-18T22:47:34.146Z,18.05
2022-08-18T22:50:52.916Z,18.07
2022-08-18T22:54:01.947Z,18.17
2022-08-18T22:57:12.830Z,18.14
2022-08-18T23:00:22.993Z,18.17
2022-08-18T23:03:35.087Z,18.25
2022-08-18T23:06:54.613Z,18.15
2022-08-18T23:10:03.842Z,18.39
2022-08-18T23:13:21.223Z,18.26
2022-08-18T23:16:32.595Z,18.17
2022-08-18T23:19:43.741Z,18.17
2022-08-18T23:23:07.620Z,18.19
2022-08-18T23:26:17.461Z,18.23
2022-08-18T23:29:36.625Z,18.16
2022-08-18T23:32:45.638Z,18.10
2022-08-18T23:35:55.480Z,18.16
2022-08-18T23:39:04.645Z,18.09
2022-08-18T23:42:13.225Z,18.10
2022-08-18T23:45:23.644Z,18.11
2022-08-18T23:48:35.083Z,18.12
2022-08-18T23:51:48.989Z,18.29
2022-08-18T23:55:04.506Z,18.23
2022-08-18T23:58:12.926Z,18.25
